FDX3MD GGOV-GMMH
Flight info
| Callsign | FDX3MD |
|---|---|
| Flight time | 1h 50m |
| Altitude | 37000 |
| Route | DEMIL DCT DKH |
| Aircraft | B752/M-SDE3FGHIM3RWXY/LB1 |
Departure
| Time | 2026-04-28 06:08 |
|---|---|
| Airport | Osvaldo Vieira International Airport (GGOV) |
Arrival
| Time | 2026-04-28 07:59 |
|---|---|
| Airport | Dakhla Airport (GMMH) |
| Time | Latitude | Longitude | Altitude | Speed | Heading |
|---|---|---|---|---|---|
| 2026-04-28 05:37 | 11.88757 | -15.65321 | 131 ft | 0 kts | 24° |
| 2026-04-28 06:02 | 11.88777 | -15.65319 | 130 ft | 3 kts | 338° |
| 2026-04-28 06:02 | 11.88801 | -15.65349 | 130 ft | 6 kts | 298° |
| 2026-04-28 06:02 | 11.88820 | -15.65392 | 130 ft | 6 kts | 291° |
| 2026-04-28 06:03 | 11.88836 | -15.65436 | 131 ft | 5 kts | 286° |
| 2026-04-28 06:03 | 11.88829 | -15.65457 | 131 ft | 4 kts | 229° |
| 2026-04-28 06:03 | 11.88796 | -15.65477 | 132 ft | 4 kts | 203° |
| 2026-04-28 06:03 | 11.88767 | -15.65489 | 133 ft | 5 kts | 200° |
| 2026-04-28 06:04 | 11.88729 | -15.65503 | 134 ft | 6 kts | 200° |
| 2026-04-28 06:04 | 11.88687 | -15.65519 | 135 ft | 6 kts | 200° |
| 2026-04-28 06:04 | 11.88643 | -15.65535 | 137 ft | 7 kts | 200° |
| 2026-04-28 06:04 | 11.88594 | -15.65553 | 137 ft | 7 kts | 200° |
| 2026-04-28 06:05 | 11.88543 | -15.65570 | 138 ft | 7 kts | 196° |
| 2026-04-28 06:05 | 11.88493 | -15.65586 | 139 ft | 7 kts | 197° |
| 2026-04-28 06:05 | 11.88441 | -15.65603 | 140 ft | 8 kts | 199° |
| 2026-04-28 06:05 | 11.88386 | -15.65622 | 141 ft | 8 kts | 199° |
| 2026-04-28 06:06 | 11.88328 | -15.65642 | 142 ft | 9 kts | 198° |
| 2026-04-28 06:06 | 11.88261 | -15.65665 | 141 ft | 11 kts | 198° |
| 2026-04-28 06:06 | 11.88182 | -15.65691 | 141 ft | 12 kts | 198° |
| 2026-04-28 06:06 | 11.88118 | -15.65714 | 140 ft | 2 kts | 212° |
| 2026-04-28 06:07 | 11.88110 | -15.65727 | 139 ft | 4 kts | 250° |
| 2026-04-28 06:07 | 11.88111 | -15.65780 | 138 ft | 8 kts | 282° |
| 2026-04-28 06:07 | 11.88144 | -15.65822 | 137 ft | 7 kts | 353° |
| 2026-04-28 06:07 | 11.88162 | -15.65821 | 138 ft | 0 kts | 14° |
| 2026-04-28 06:08 | 11.88166 | -15.65819 | 138 ft | 5 kts | 15° |
| 2026-04-28 06:08 | 11.88438 | -15.65729 | 140 ft | 88 kts | 19° |
| 2026-04-28 06:08 | 11.89341 | -15.65420 | 195 ft | 171 kts | 18° |
| 2026-04-28 06:08 | 11.90557 | -15.65095 | 1030 ft | 199 kts | 2° |
| 2026-04-28 06:09 | 11.91938 | -15.65256 | 2015 ft | 199 kts | 353° |
| 2026-04-28 06:09 | 11.93417 | -15.65383 | 2318 ft | 224 kts | 359° |
| 2026-04-28 06:09 | 11.95030 | -15.65422 | 2798 ft | 240 kts | 0° |
| 2026-04-28 06:09 | 11.96777 | -15.65422 | 3287 ft | 256 kts | 1° |
| 2026-04-28 06:10 | 11.98576 | -15.65393 | 3990 ft | 262 kts | 2° |
| 2026-04-28 06:10 | 12.00406 | -15.65348 | 4737 ft | 266 kts | 3° |
| 2026-04-28 06:10 | 12.02156 | -15.65296 | 5408 ft | 272 kts | 3° |
| 2026-04-28 06:10 | 12.04087 | -15.65233 | 6132 ft | 277 kts | 4° |
| 2026-04-28 06:11 | 12.06030 | -15.65165 | 6839 ft | 281 kts | 4° |
| 2026-04-28 06:11 | 12.07990 | -15.65094 | 7555 ft | 285 kts | 3° |
| 2026-04-28 06:11 | 12.10002 | -15.65020 | 8241 ft | 289 kts | 4° |
| 2026-04-28 06:11 | 12.12013 | -15.64946 | 8931 ft | 294 kts | 3° |
| 2026-04-28 06:12 | 12.14090 | -15.64869 | 9672 ft | 297 kts | 3° |
| 2026-04-28 06:12 | 12.16161 | -15.64792 | 10324 ft | 303 kts | 3° |
| 2026-04-28 06:12 | 12.18367 | -15.64710 | 10589 ft | 325 kts | 3° |
| 2026-04-28 06:12 | 12.20722 | -15.64622 | 10879 ft | 344 kts | 2° |
| 2026-04-28 06:13 | 12.23179 | -15.64531 | 11128 ft | 364 kts | 2° |
| 2026-04-28 06:13 | 12.25798 | -15.64433 | 11396 ft | 382 kts | 2° |
| 2026-04-28 06:13 | 12.28506 | -15.64333 | 12080 ft | 386 kts | 2° |
| 2026-04-28 06:13 | 12.31195 | -15.64232 | 12694 ft | 391 kts | 2° |
| 2026-04-28 06:14 | 12.33953 | -15.64130 | 13345 ft | 394 kts | 1° |
| 2026-04-28 06:14 | 12.36706 | -15.64027 | 13977 ft | 397 kts | 1° |
| 2026-04-28 06:14 | 12.39473 | -15.63923 | 14598 ft | 399 kts | 1° |
| 2026-04-28 06:14 | 12.42280 | -15.63819 | 15205 ft | 401 kts | 0° |
| 2026-04-28 06:15 | 12.45066 | -15.63715 | 15778 ft | 403 kts | 0° |
| 2026-04-28 06:15 | 12.47897 | -15.63609 | 16354 ft | 405 kts | 360° |
| 2026-04-28 06:15 | 12.50739 | -15.63503 | 16897 ft | 406 kts | 359° |
| 2026-04-28 06:15 | 12.53597 | -15.63397 | 17417 ft | 408 kts | 359° |
| 2026-04-28 06:16 | 12.56432 | -15.63292 | 17874 ft | 412 kts | 359° |
| 2026-04-28 06:16 | 12.59340 | -15.63184 | 18267 ft | 416 kts | 359° |
| 2026-04-28 06:16 | 12.62270 | -15.63075 | 18713 ft | 419 kts | 359° |
| 2026-04-28 06:16 | 12.65216 | -15.62965 | 19100 ft | 423 kts | 359° |
| 2026-04-28 06:17 | 12.68171 | -15.62855 | 19489 ft | 426 kts | 359° |
| 2026-04-28 06:17 | 12.71178 | -15.62743 | 19871 ft | 429 kts | 359° |
| 2026-04-28 06:17 | 12.74164 | -15.62631 | 20238 ft | 433 kts | 359° |
| 2026-04-28 06:18 | 12.80041 | -15.62411 | 20909 ft | 439 kts | 359° |
| 2026-04-28 06:18 | 12.83153 | -15.62295 | 21232 ft | 442 kts | 359° |
| 2026-04-28 06:18 | 12.86236 | -15.62180 | 21563 ft | 444 kts | 360° |
| 2026-04-28 06:18 | 12.89338 | -15.62063 | 21864 ft | 447 kts | 359° |
| 2026-04-28 06:19 | 12.92508 | -15.61945 | 22146 ft | 451 kts | 360° |
| 2026-04-28 06:19 | 12.95650 | -15.61827 | 22471 ft | 452 kts | 360° |
| 2026-04-28 06:19 | 12.98813 | -15.61708 | 22773 ft | 455 kts | 360° |
| 2026-04-28 06:19 | 13.02020 | -15.61587 | 23120 ft | 456 kts | 359° |
| 2026-04-28 06:20 | 13.05187 | -15.61468 | 23476 ft | 456 kts | 359° |
| 2026-04-28 06:20 | 13.08372 | -15.61349 | 23788 ft | 458 kts | 359° |
| 2026-04-28 06:20 | 13.11566 | -15.61229 | 24138 ft | 458 kts | 359° |
| 2026-04-28 06:20 | 13.14809 | -15.61107 | 24430 ft | 461 kts | 359° |
| 2026-04-28 06:21 | 13.18043 | -15.60986 | 24747 ft | 462 kts | 359° |
| 2026-04-28 06:21 | 13.21243 | -15.60867 | 25052 ft | 463 kts | 359° |
| 2026-04-28 06:21 | 13.24394 | -15.60748 | 25353 ft | 464 kts | 359° |
| 2026-04-28 06:21 | 13.27531 | -15.60630 | 25668 ft | 465 kts | 359° |
| 2026-04-28 06:22 | 13.30812 | -15.60507 | 25889 ft | 468 kts | 359° |
| 2026-04-28 06:22 | 13.34065 | -15.60385 | 26196 ft | 468 kts | 359° |
| 2026-04-28 06:22 | 13.37344 | -15.60262 | 26467 ft | 470 kts | 359° |
| 2026-04-28 06:22 | 13.40670 | -15.60136 | 26712 ft | 472 kts | 359° |
| 2026-04-28 06:23 | 13.43933 | -15.60014 | 27009 ft | 472 kts | 359° |
| 2026-04-28 06:23 | 13.47261 | -15.59889 | 27240 ft | 474 kts | 359° |
| 2026-04-28 06:23 | 13.50555 | -15.59765 | 27490 ft | 475 kts | 359° |
| 2026-04-28 06:23 | 13.53901 | -15.59639 | 27733 ft | 477 kts | 359° |
| 2026-04-28 06:24 | 13.57241 | -15.59513 | 28004 ft | 477 kts | 359° |
| 2026-04-28 06:24 | 13.60593 | -15.59387 | 28225 ft | 479 kts | 359° |
| 2026-04-28 06:24 | 13.63908 | -15.59262 | 28556 ft | 477 kts | 359° |
| 2026-04-28 06:24 | 13.67248 | -15.59136 | 28889 ft | 476 kts | 359° |
| 2026-04-28 06:25 | 13.70568 | -15.59010 | 29110 ft | 477 kts | 358° |
| 2026-04-28 06:25 | 13.73910 | -15.58884 | 29404 ft | 476 kts | 358° |
| 2026-04-28 06:25 | 13.77245 | -15.58759 | 29593 ft | 478 kts | 358° |
| 2026-04-28 06:25 | 13.80584 | -15.58633 | 29879 ft | 477 kts | 358° |
| 2026-04-28 06:26 | 13.83923 | -15.58507 | 30083 ft | 478 kts | 358° |
| 2026-04-28 06:26 | 13.87263 | -15.58380 | 30355 ft | 477 kts | 358° |
| 2026-04-28 06:26 | 13.90589 | -15.58255 | 30614 ft | 476 kts | 358° |
| 2026-04-28 06:26 | 13.93887 | -15.58130 | 30903 ft | 475 kts | 358° |
| 2026-04-28 06:27 | 13.97217 | -15.58004 | 31095 ft | 476 kts | 358° |
| 2026-04-28 06:27 | 14.00560 | -15.57878 | 31401 ft | 475 kts | 357° |
| 2026-04-28 06:27 | 14.03866 | -15.57753 | 31579 ft | 476 kts | 357° |
| 2026-04-28 06:27 | 14.07230 | -15.57626 | 31803 ft | 476 kts | 357° |
| 2026-04-28 06:28 | 14.10545 | -15.57501 | 32056 ft | 476 kts | 357° |
| 2026-04-28 06:28 | 14.13897 | -15.57374 | 32278 ft | 476 kts | 357° |
| 2026-04-28 06:28 | 14.17227 | -15.57248 | 32539 ft | 475 kts | 357° |
| 2026-04-28 06:28 | 14.20547 | -15.57122 | 32737 ft | 476 kts | 357° |
| 2026-04-28 06:29 | 14.23866 | -15.56997 | 33029 ft | 475 kts | 357° |
| 2026-04-28 06:29 | 14.27177 | -15.56871 | 33381 ft | 473 kts | 357° |
| 2026-04-28 06:29 | 14.30499 | -15.56746 | 33589 ft | 475 kts | 357° |
| 2026-04-28 06:29 | 14.33825 | -15.56620 | 33941 ft | 473 kts | 357° |
| 2026-04-28 06:30 | 14.37108 | -15.56495 | 34186 ft | 473 kts | 357° |
| 2026-04-28 06:30 | 14.40408 | -15.56370 | 34496 ft | 472 kts | 357° |
| 2026-04-28 06:30 | 14.43691 | -15.56245 | 34797 ft | 471 kts | 357° |
| 2026-04-28 06:30 | 14.46989 | -15.56120 | 35119 ft | 470 kts | 357° |
| 2026-04-28 06:31 | 14.50292 | -15.55995 | 35425 ft | 469 kts | 357° |
| 2026-04-28 06:31 | 14.53574 | -15.55870 | 35663 ft | 470 kts | 356° |
| 2026-04-28 06:31 | 14.56846 | -15.55746 | 35885 ft | 470 kts | 357° |
| 2026-04-28 06:31 | 14.60163 | -15.55620 | 36150 ft | 469 kts | 356° |
| 2026-04-28 06:32 | 14.63411 | -15.55497 | 36389 ft | 469 kts | 356° |
| 2026-04-28 06:32 | 14.66709 | -15.55371 | 36599 ft | 469 kts | 356° |
| 2026-04-28 06:32 | 14.69833 | -15.55253 | 36731 ft | 470 kts | 356° |
| 2026-04-28 06:32 | 14.73075 | -15.55129 | 36918 ft | 468 kts | 356° |
| 2026-04-28 06:33 | 14.76333 | -15.55004 | 36936 ft | 464 kts | 356° |
| 2026-04-28 06:33 | 14.82824 | -15.54758 | 36945 ft | 467 kts | 356° |
| 2026-04-28 06:34 | 14.89362 | -15.54509 | 36943 ft | 466 kts | 356° |
| 2026-04-28 06:34 | 14.95853 | -15.54262 | 36944 ft | 466 kts | 356° |
| 2026-04-28 06:35 | 15.02401 | -15.54012 | 36948 ft | 467 kts | 356° |
| 2026-04-28 06:35 | 15.08906 | -15.53764 | 36946 ft | 465 kts | 356° |
| 2026-04-28 06:36 | 15.15419 | -15.53516 | 36947 ft | 467 kts | 356° |
| 2026-04-28 06:36 | 15.21946 | -15.53266 | 36949 ft | 466 kts | 356° |
| 2026-04-28 06:37 | 15.28430 | -15.53018 | 36948 ft | 465 kts | 356° |
| 2026-04-28 06:37 | 15.34932 | -15.52770 | 36951 ft | 466 kts | 356° |
| 2026-04-28 06:38 | 15.41441 | -15.52520 | 36948 ft | 466 kts | 356° |
| 2026-04-28 06:38 | 15.47958 | -15.52271 | 36950 ft | 465 kts | 356° |
| 2026-04-28 06:39 | 15.54449 | -15.52022 | 36949 ft | 465 kts | 356° |
| 2026-04-28 06:39 | 15.60931 | -15.51774 | 36950 ft | 465 kts | 356° |
| 2026-04-28 06:40 | 15.67428 | -15.51525 | 36952 ft | 465 kts | 356° |
| 2026-04-28 06:40 | 15.73932 | -15.51274 | 36956 ft | 464 kts | 356° |
| 2026-04-28 06:41 | 15.80426 | -15.51026 | 36957 ft | 464 kts | 356° |
| 2026-04-28 06:41 | 15.86939 | -15.50775 | 36962 ft | 465 kts | 356° |
| 2026-04-28 06:42 | 15.93430 | -15.50525 | 36961 ft | 464 kts | 356° |
| 2026-04-28 06:42 | 15.99905 | -15.50276 | 36964 ft | 464 kts | 356° |
| 2026-04-28 06:43 | 16.06390 | -15.50026 | 36962 ft | 464 kts | 356° |
| 2026-04-28 06:43 | 16.12875 | -15.49776 | 36964 ft | 464 kts | 355° |
| 2026-04-28 06:44 | 16.19334 | -15.49527 | 36966 ft | 464 kts | 355° |
| 2026-04-28 06:44 | 16.25843 | -15.49276 | 36965 ft | 465 kts | 355° |
| 2026-04-28 06:45 | 16.32334 | -15.49025 | 36964 ft | 465 kts | 355° |
| 2026-04-28 06:45 | 16.38815 | -15.48775 | 36965 ft | 465 kts | 355° |
| 2026-04-28 06:46 | 16.45096 | -15.48523 | 36966 ft | 464 kts | 355° |
| 2026-04-28 06:46 | 16.51443 | -15.48830 | 36963 ft | 459 kts | 350° |
| 2026-04-28 06:47 | 16.57875 | -15.49230 | 36967 ft | 461 kts | 350° |
| 2026-04-28 06:47 | 16.64278 | -15.49608 | 36965 ft | 461 kts | 350° |
| 2026-04-28 06:48 | 16.70714 | -15.49981 | 36964 ft | 460 kts | 350° |
| 2026-04-28 06:48 | 16.77137 | -15.50350 | 36967 ft | 460 kts | 350° |
| 2026-04-28 06:49 | 16.83549 | -15.50718 | 36964 ft | 461 kts | 350° |
| 2026-04-28 06:49 | 16.90010 | -15.51088 | 36965 ft | 462 kts | 350° |
| 2026-04-28 06:50 | 16.96438 | -15.51456 | 36967 ft | 461 kts | 350° |
| 2026-04-28 06:50 | 17.02896 | -15.51826 | 36965 ft | 460 kts | 350° |
| 2026-04-28 06:51 | 17.09108 | -15.52183 | 36965 ft | 461 kts | 350° |
| 2026-04-28 06:51 | 17.15511 | -15.52551 | 36967 ft | 459 kts | 350° |
| 2026-04-28 06:52 | 17.21942 | -15.52920 | 36970 ft | 459 kts | 349° |
| 2026-04-28 06:52 | 17.28347 | -15.53289 | 36967 ft | 461 kts | 349° |
| 2026-04-28 06:53 | 17.34792 | -15.53659 | 36965 ft | 461 kts | 349° |
| 2026-04-28 06:53 | 17.41248 | -15.54031 | 36968 ft | 462 kts | 349° |
| 2026-04-28 06:54 | 17.47649 | -15.54399 | 36971 ft | 460 kts | 349° |
| 2026-04-28 06:54 | 17.54091 | -15.54771 | 36969 ft | 460 kts | 349° |
| 2026-04-28 06:55 | 17.60523 | -15.55143 | 36970 ft | 460 kts | 349° |
| 2026-04-28 06:55 | 17.66921 | -15.55513 | 36969 ft | 462 kts | 349° |
| 2026-04-28 06:56 | 17.73376 | -15.55885 | 36968 ft | 459 kts | 349° |
| 2026-04-28 06:56 | 17.79784 | -15.56255 | 36965 ft | 458 kts | 349° |
| 2026-04-28 06:57 | 17.86193 | -15.56626 | 36966 ft | 459 kts | 349° |
| 2026-04-28 06:57 | 17.91988 | -15.56963 | 36973 ft | 460 kts | 349° |
| 2026-04-28 06:58 | 17.98414 | -15.57334 | 36975 ft | 459 kts | 348° |
| 2026-04-28 06:58 | 18.04822 | -15.57706 | 36978 ft | 461 kts | 348° |
| 2026-04-28 06:59 | 18.11281 | -15.58081 | 36981 ft | 459 kts | 348° |
| 2026-04-28 06:59 | 18.17675 | -15.58452 | 36976 ft | 457 kts | 348° |
| 2026-04-28 07:00 | 18.24038 | -15.58821 | 36976 ft | 456 kts | 348° |
| 2026-04-28 07:00 | 18.30436 | -15.59194 | 36976 ft | 457 kts | 348° |
| 2026-04-28 07:01 | 18.36794 | -15.59564 | 36979 ft | 457 kts | 348° |
| 2026-04-28 07:01 | 18.43194 | -15.59938 | 36977 ft | 458 kts | 348° |
| 2026-04-28 07:02 | 18.49597 | -15.60311 | 36979 ft | 460 kts | 348° |
| 2026-04-28 07:02 | 18.55998 | -15.60683 | 36979 ft | 456 kts | 348° |
| 2026-04-28 07:03 | 18.62362 | -15.61055 | 36986 ft | 457 kts | 348° |
| 2026-04-28 07:03 | 18.68739 | -15.61428 | 36980 ft | 457 kts | 348° |
| 2026-04-28 07:04 | 18.75114 | -15.61801 | 36978 ft | 457 kts | 347° |
| 2026-04-28 07:04 | 18.81491 | -15.62173 | 36977 ft | 456 kts | 347° |
| 2026-04-28 07:05 | 18.87889 | -15.62548 | 36977 ft | 456 kts | 347° |
| 2026-04-28 07:05 | 18.94264 | -15.62922 | 36977 ft | 455 kts | 347° |
| 2026-04-28 07:06 | 19.00606 | -15.63293 | 36984 ft | 454 kts | 347° |
| 2026-04-28 07:06 | 19.06953 | -15.63668 | 36985 ft | 456 kts | 347° |
| 2026-04-28 07:07 | 19.13308 | -15.64040 | 36978 ft | 455 kts | 347° |
| 2026-04-28 07:07 | 19.19668 | -15.64414 | 36976 ft | 456 kts | 347° |
| 2026-04-28 07:08 | 19.26015 | -15.64786 | 36972 ft | 454 kts | 347° |
| 2026-04-28 07:08 | 19.32393 | -15.65163 | 36971 ft | 455 kts | 347° |
| 2026-04-28 07:09 | 19.38742 | -15.65537 | 36977 ft | 456 kts | 347° |
| 2026-04-28 07:09 | 19.45106 | -15.65911 | 36980 ft | 453 kts | 347° |
| 2026-04-28 07:10 | 19.51442 | -15.66286 | 36980 ft | 455 kts | 347° |
| 2026-04-28 07:10 | 19.57771 | -15.66659 | 36982 ft | 455 kts | 347° |
| 2026-04-28 07:11 | 19.64132 | -15.67036 | 36983 ft | 456 kts | 347° |
| 2026-04-28 07:11 | 19.70486 | -15.67411 | 36986 ft | 454 kts | 347° |
| 2026-04-28 07:12 | 19.76810 | -15.67785 | 36981 ft | 453 kts | 347° |
| 2026-04-28 07:12 | 19.83175 | -15.68163 | 36976 ft | 453 kts | 347° |
| 2026-04-28 07:13 | 19.89506 | -15.68539 | 36975 ft | 455 kts | 347° |
| 2026-04-28 07:13 | 19.95854 | -15.68915 | 36973 ft | 455 kts | 347° |
| 2026-04-28 07:14 | 20.02195 | -15.69290 | 36976 ft | 452 kts | 346° |
| 2026-04-28 07:14 | 20.08503 | -15.69667 | 36977 ft | 454 kts | 346° |
| 2026-04-28 07:15 | 20.14845 | -15.70044 | 36978 ft | 455 kts | 346° |
| 2026-04-28 07:15 | 20.21201 | -15.70422 | 36980 ft | 454 kts | 346° |
| 2026-04-28 07:16 | 20.27547 | -15.70801 | 36976 ft | 455 kts | 346° |
| 2026-04-28 07:16 | 20.33945 | -15.71182 | 36977 ft | 454 kts | 346° |
| 2026-04-28 07:17 | 20.40261 | -15.71560 | 36979 ft | 455 kts | 346° |
| 2026-04-28 07:17 | 20.46630 | -15.71940 | 36977 ft | 455 kts | 346° |
| 2026-04-28 07:18 | 20.53013 | -15.72322 | 36983 ft | 456 kts | 346° |
| 2026-04-28 07:18 | 20.59323 | -15.72697 | 36985 ft | 455 kts | 346° |
| 2026-04-28 07:19 | 20.65683 | -15.73079 | 36982 ft | 454 kts | 346° |
| 2026-04-28 07:19 | 20.72040 | -15.73460 | 36986 ft | 454 kts | 346° |
| 2026-04-28 07:20 | 20.78354 | -15.73839 | 36987 ft | 455 kts | 346° |
| 2026-04-28 07:20 | 20.84717 | -15.74221 | 36988 ft | 455 kts | 346° |
| 2026-04-28 07:21 | 20.90855 | -15.74589 | 36991 ft | 455 kts | 346° |
| 2026-04-28 07:21 | 20.97268 | -15.74977 | 36992 ft | 457 kts | 346° |
| 2026-04-28 07:22 | 21.06824 | -15.75551 | 37004 ft | 458 kts | 346° |
| 2026-04-28 07:22 | 21.13180 | -15.75932 | 37000 ft | 455 kts | 346° |
| 2026-04-28 07:23 | 21.19563 | -15.76320 | 37010 ft | 457 kts | 346° |
| 2026-04-28 07:23 | 21.25926 | -15.76701 | 37007 ft | 454 kts | 346° |
| 2026-04-28 07:24 | 21.32317 | -15.77090 | 37002 ft | 458 kts | 346° |
| 2026-04-28 07:24 | 21.38723 | -15.77476 | 37001 ft | 457 kts | 346° |
| 2026-04-28 07:25 | 21.45062 | -15.77859 | 36998 ft | 455 kts | 346° |
| 2026-04-28 07:25 | 21.51214 | -15.78232 | 37012 ft | 456 kts | 346° |
| 2026-04-28 07:26 | 21.57569 | -15.78617 | 37008 ft | 454 kts | 346° |
| 2026-04-28 07:26 | 21.63940 | -15.79005 | 37004 ft | 455 kts | 346° |
| 2026-04-28 07:27 | 21.70291 | -15.79389 | 36998 ft | 454 kts | 346° |
| 2026-04-28 07:27 | 21.76617 | -15.79775 | 37012 ft | 454 kts | 346° |
| 2026-04-28 07:28 | 21.82964 | -15.80160 | 37000 ft | 454 kts | 346° |
| 2026-04-28 07:28 | 21.86162 | -15.80358 | 36457 ft | 459 kts | 347° |
| 2026-04-28 07:28 | 21.89331 | -15.80548 | 35846 ft | 451 kts | 347° |
| 2026-04-28 07:29 | 21.92425 | -15.80732 | 35234 ft | 441 kts | 347° |
| 2026-04-28 07:29 | 21.95481 | -15.80917 | 34655 ft | 433 kts | 347° |
| 2026-04-28 07:29 | 21.98513 | -15.81105 | 34072 ft | 433 kts | 347° |
| 2026-04-28 07:29 | 22.01530 | -15.81294 | 33508 ft | 440 kts | 348° |
| 2026-04-28 07:30 | 22.04624 | -15.81486 | 32920 ft | 446 kts | 348° |
| 2026-04-28 07:30 | 22.06731 | -15.81615 | 32525 ft | 448 kts | 349° |
| 2026-04-28 07:30 | 22.10915 | -15.81870 | 31711 ft | 452 kts | 349° |
| 2026-04-28 07:30 | 22.14052 | -15.82061 | 31092 ft | 453 kts | 349° |
| 2026-04-28 07:31 | 22.17220 | -15.82254 | 30469 ft | 454 kts | 349° |
| 2026-04-28 07:31 | 22.20396 | -15.82448 | 29841 ft | 457 kts | 349° |
| 2026-04-28 07:31 | 22.23619 | -15.82645 | 29184 ft | 459 kts | 349° |
| 2026-04-28 07:31 | 22.26815 | -15.82840 | 28520 ft | 457 kts | 350° |
| 2026-04-28 07:32 | 22.29774 | -15.83019 | 27905 ft | 451 kts | 350° |
| 2026-04-28 07:32 | 22.32882 | -15.83208 | 27259 ft | 443 kts | 350° |
| 2026-04-28 07:32 | 22.35978 | -15.83397 | 26626 ft | 436 kts | 350° |
| 2026-04-28 07:32 | 22.38967 | -15.83580 | 26025 ft | 432 kts | 350° |
| 2026-04-28 07:33 | 22.41979 | -15.83767 | 25422 ft | 431 kts | 351° |
| 2026-04-28 07:33 | 22.44980 | -15.83952 | 24814 ft | 429 kts | 351° |
| 2026-04-28 07:33 | 22.47990 | -15.84136 | 24209 ft | 425 kts | 351° |
| 2026-04-28 07:33 | 22.50716 | -15.84303 | 23673 ft | 421 kts | 351° |
| 2026-04-28 07:34 | 22.53669 | -15.84485 | 23097 ft | 417 kts | 351° |
| 2026-04-28 07:34 | 22.56565 | -15.84663 | 22541 ft | 414 kts | 351° |
| 2026-04-28 07:34 | 22.59422 | -15.84839 | 21998 ft | 412 kts | 352° |
| 2026-04-28 07:34 | 22.62305 | -15.85017 | 21447 ft | 410 kts | 352° |
| 2026-04-28 07:35 | 22.65166 | -15.85193 | 20897 ft | 408 kts | 352° |
| 2026-04-28 07:35 | 22.67988 | -15.85367 | 20355 ft | 405 kts | 352° |
| 2026-04-28 07:35 | 22.70795 | -15.85539 | 19811 ft | 401 kts | 352° |
| 2026-04-28 07:35 | 22.73606 | -15.85713 | 19265 ft | 398 kts | 352° |
| 2026-04-28 07:36 | 22.76361 | -15.85883 | 18728 ft | 396 kts | 352° |
| 2026-04-28 07:36 | 22.79126 | -15.86054 | 18190 ft | 393 kts | 352° |
| 2026-04-28 07:36 | 22.81863 | -15.86222 | 17654 ft | 390 kts | 352° |
| 2026-04-28 07:36 | 22.84573 | -15.86390 | 17125 ft | 388 kts | 352° |
| 2026-04-28 07:37 | 22.87261 | -15.86556 | 16599 ft | 385 kts | 352° |
| 2026-04-28 07:37 | 22.89968 | -15.86723 | 16066 ft | 382 kts | 352° |
| 2026-04-28 07:37 | 22.92606 | -15.86886 | 15542 ft | 379 kts | 352° |
| 2026-04-28 07:37 | 22.95254 | -15.87050 | 15019 ft | 375 kts | 352° |
| 2026-04-28 07:38 | 22.97838 | -15.87209 | 14507 ft | 372 kts | 352° |
| 2026-04-28 07:38 | 23.00440 | -15.87371 | 13989 ft | 368 kts | 353° |
| 2026-04-28 07:38 | 23.02841 | -15.87519 | 13512 ft | 366 kts | 353° |
| 2026-04-28 07:38 | 23.05380 | -15.87677 | 13009 ft | 363 kts | 353° |
| 2026-04-28 07:39 | 23.07897 | -15.87834 | 12512 ft | 360 kts | 353° |
| 2026-04-28 07:39 | 23.10397 | -15.87989 | 12010 ft | 356 kts | 354° |
| 2026-04-28 07:39 | 23.12872 | -15.88143 | 11516 ft | 353 kts | 354° |
| 2026-04-28 07:39 | 23.15330 | -15.88296 | 11023 ft | 349 kts | 354° |
| 2026-04-28 07:40 | 23.17763 | -15.88447 | 10539 ft | 347 kts | 355° |
| 2026-04-28 07:40 | 23.20158 | -15.88595 | 10235 ft | 338 kts | 355° |
| 2026-04-28 07:40 | 23.22448 | -15.88735 | 10215 ft | 319 kts | 355° |
| 2026-04-28 07:40 | 23.24637 | -15.88870 | 10186 ft | 302 kts | 355° |
| 2026-04-28 07:41 | 23.26698 | -15.88998 | 10168 ft | 287 kts | 354° |
| 2026-04-28 07:41 | 23.28702 | -15.89123 | 9886 ft | 282 kts | 355° |
| 2026-04-28 07:41 | 23.30287 | -15.89222 | 9642 ft | 280 kts | 354° |
| 2026-04-28 07:41 | 23.32225 | -15.89344 | 9338 ft | 276 kts | 355° |
| 2026-04-28 07:42 | 23.34178 | -15.89466 | 9046 ft | 273 kts | 355° |
| 2026-04-28 07:42 | 23.36118 | -15.89586 | 8750 ft | 270 kts | 355° |
| 2026-04-28 07:42 | 23.38029 | -15.89705 | 8460 ft | 269 kts | 355° |
| 2026-04-28 07:42 | 23.39938 | -15.89825 | 8165 ft | 269 kts | 355° |
| 2026-04-28 07:43 | 23.41750 | -15.89938 | 7876 ft | 270 kts | 355° |
| 2026-04-28 07:43 | 23.43646 | -15.90056 | 7550 ft | 269 kts | 355° |
| 2026-04-28 07:43 | 23.45574 | -15.90176 | 7210 ft | 268 kts | 355° |
| 2026-04-28 07:43 | 23.47432 | -15.90291 | 6883 ft | 267 kts | 356° |
| 2026-04-28 07:44 | 23.49356 | -15.90412 | 6546 ft | 265 kts | 355° |
| 2026-04-28 07:44 | 23.51248 | -15.90530 | 6215 ft | 264 kts | 356° |
| 2026-04-28 07:44 | 23.52466 | -15.90606 | 6007 ft | 262 kts | 356° |
| 2026-04-28 07:44 | 23.55009 | -15.90766 | 5459 ft | 255 kts | 356° |
| 2026-04-28 07:45 | 23.56806 | -15.90878 | 5229 ft | 249 kts | 356° |
| 2026-04-28 07:45 | 23.58573 | -15.90988 | 4985 ft | 244 kts | 357° |
| 2026-04-28 07:45 | 23.60326 | -15.91097 | 4765 ft | 241 kts | 357° |
| 2026-04-28 07:45 | 23.62023 | -15.91204 | 4551 ft | 240 kts | 358° |
| 2026-04-28 07:46 | 23.63715 | -15.91309 | 4296 ft | 241 kts | 358° |
| 2026-04-28 07:46 | 23.65403 | -15.91414 | 3943 ft | 243 kts | 358° |
| 2026-04-28 07:46 | 23.67136 | -15.91523 | 3677 ft | 239 kts | 359° |
| 2026-04-28 07:46 | 23.68882 | -15.91633 | 3386 ft | 237 kts | 359° |
| 2026-04-28 07:47 | 23.70493 | -15.91734 | 3368 ft | 223 kts | 359° |
| 2026-04-28 07:47 | 23.72052 | -15.91832 | 3316 ft | 212 kts | 359° |
| 2026-04-28 07:47 | 23.73558 | -15.91926 | 3184 ft | 210 kts | 359° |
| 2026-04-28 07:47 | 23.75058 | -15.91993 | 3003 ft | 206 kts | 3° |
| 2026-04-28 07:48 | 23.76541 | -15.91964 | 3009 ft | 202 kts | 3° |
| 2026-04-28 07:48 | 23.77999 | -15.91947 | 3021 ft | 209 kts | 2° |
| 2026-04-28 07:48 | 23.79536 | -15.91938 | 3013 ft | 209 kts | 2° |
| 2026-04-28 07:48 | 23.81050 | -15.91934 | 3006 ft | 206 kts | 3° |
| 2026-04-28 07:49 | 23.82493 | -15.91626 | 3022 ft | 205 kts | 29° |
| 2026-04-28 07:49 | 23.83575 | -15.90514 | 3030 ft | 209 kts | 60° |
| 2026-04-28 07:49 | 23.83909 | -15.88934 | 3023 ft | 212 kts | 92° |
| 2026-04-28 07:49 | 23.83328 | -15.87345 | 3026 ft | 222 kts | 127° |
| 2026-04-28 07:50 | 23.81930 | -15.86386 | 3032 ft | 234 kts | 165° |
| 2026-04-28 07:50 | 23.80280 | -15.86524 | 3038 ft | 241 kts | 202° |
| 2026-04-28 07:50 | 23.78911 | -15.87645 | 3033 ft | 241 kts | 230° |
| 2026-04-28 07:50 | 23.77797 | -15.89000 | 3001 ft | 239 kts | 226° |
| 2026-04-28 07:51 | 23.76564 | -15.90288 | 2998 ft | 238 kts | 223° |
| 2026-04-28 07:51 | 23.75305 | -15.91516 | 3004 ft | 240 kts | 221° |
| 2026-04-28 07:51 | 23.74076 | -15.92668 | 3002 ft | 240 kts | 221° |
| 2026-04-28 07:51 | 23.72777 | -15.93856 | 3000 ft | 238 kts | 220° |
| 2026-04-28 07:52 | 23.71460 | -15.95045 | 3004 ft | 239 kts | 220° |
| 2026-04-28 07:52 | 23.70125 | -15.96239 | 3001 ft | 239 kts | 220° |
| 2026-04-28 07:52 | 23.68774 | -15.97443 | 3002 ft | 239 kts | 219° |
| 2026-04-28 07:52 | 23.67467 | -15.98604 | 3002 ft | 239 kts | 219° |
| 2026-04-28 07:53 | 23.66098 | -15.99818 | 2999 ft | 239 kts | 219° |
| 2026-04-28 07:53 | 23.64749 | -16.01012 | 3002 ft | 239 kts | 219° |
| 2026-04-28 07:53 | 23.63427 | -16.02183 | 3001 ft | 239 kts | 219° |
| 2026-04-28 07:53 | 23.62066 | -16.03387 | 3003 ft | 240 kts | 219° |
| 2026-04-28 07:54 | 23.60713 | -16.04584 | 3002 ft | 239 kts | 219° |
| 2026-04-28 07:54 | 23.59341 | -16.05681 | 2863 ft | 243 kts | 204° |
| 2026-04-28 07:54 | 23.57606 | -16.06019 | 2619 ft | 236 kts | 167° |
| 2026-04-28 07:54 | 23.56143 | -16.05339 | 2394 ft | 224 kts | 132° |
| 2026-04-28 07:55 | 23.55347 | -16.03906 | 2289 ft | 203 kts | 94° |
| 2026-04-28 07:55 | 23.55584 | -16.02367 | 2353 ft | 200 kts | 55° |
| 2026-04-28 07:55 | 23.56543 | -16.01203 | 2385 ft | 204 kts | 45° |
| 2026-04-28 07:55 | 23.57532 | -15.99981 | 2279 ft | 204 kts | 45° |
| 2026-04-28 07:56 | 23.58739 | -15.99163 | 2124 ft | 198 kts | 24° |
| 2026-04-28 07:56 | 23.60025 | -15.98580 | 2008 ft | 190 kts | 25° |
| 2026-04-28 07:56 | 23.61245 | -15.98010 | 2020 ft | 174 kts | 24° |
| 2026-04-28 07:56 | 23.62356 | -15.97500 | 1781 ft | 169 kts | 24° |
| 2026-04-28 07:57 | 23.63466 | -15.96994 | 1540 ft | 156 kts | 24° |
| 2026-04-28 07:57 | 23.64459 | -15.96542 | 1330 ft | 151 kts | 24° |
| 2026-04-28 07:57 | 23.65472 | -15.96081 | 1142 ft | 157 kts | 24° |
| 2026-04-28 07:57 | 23.66546 | -15.95592 | 900 ft | 158 kts | 24° |
| 2026-04-28 07:58 | 23.67560 | -15.95113 | 689 ft | 151 kts | 25° |
| 2026-04-28 07:58 | 23.68450 | -15.94718 | 602 ft | 126 kts | 24° |
| 2026-04-28 07:58 | 23.69242 | -15.94371 | 333 ft | 115 kts | 24° |
| 2026-04-28 07:58 | 23.69954 | -15.94058 | 166 ft | 107 kts | 26° |
| 2026-04-28 07:59 | 23.70670 | -15.93727 | 71 ft | 114 kts | 25° |
| 2026-04-28 07:59 | 23.71378 | -15.93401 | 43 ft | 79 kts | 22° |
| 2026-04-28 07:59 | 23.71565 | -15.93286 | 42 ft | 10 kts | 83° |
| 2026-04-28 07:59 | 23.71547 | -15.93197 | 40 ft | 9 kts | 110° |
| 2026-04-28 08:00 | 23.71524 | -15.93139 | 39 ft | 8 kts | 112° |
| 2026-04-28 08:00 | 23.71499 | -15.93074 | 38 ft | 9 kts | 112° |
| 2026-04-28 08:00 | 23.71476 | -15.93009 | 39 ft | 9 kts | 111° |
| 2026-04-28 08:00 | 23.71451 | -15.92948 | 39 ft | 8 kts | 116° |
| 2026-04-28 08:01 | 23.71419 | -15.92916 | 39 ft | 3 kts | 153° |
| 2026-04-28 08:01 | 23.71405 | -15.92905 | 39 ft | 2 kts | 119° |
| 2026-04-28 08:01 | 23.71401 | -15.92896 | 39 ft | 0 kts | 112° |